Time;durP1;ratioP1;P1;durP2;ratioP2;P2;SDS_P1;SDS_P2;PMS_P1;PMS_P2;Temp;Humidity;BMP_temperature;BMP_pressure;BME280_temperature;BME280_humidity;BME280_pressure;Samples;Min_cycle;Max_cycle;Signal;HPM_P1;HPM_P2
2022/11/09 00:01:51;;;;;;;;;;;;;;;18.42;70.42;100392.27;2412414;73;50747;-73
2022/11/09 00:04:53;;;;;;;;;;;;;;;18.41;70.43;100385.23;2356490;73;51443;-72
2022/11/09 00:07:54;;;;;;;;;;;;;;;18.40;70.50;100383.59;2395924;74;50708;-71
2022/11/09 00:10:58;;;;;;;;;;;;;;;18.40;70.52;100390.28;2384938;74;50613;-73
2022/11/09 00:13:59;;;;;;;;;;;;;;;18.40;70.30;100388.12;2361655;73;50438;-73
2022/11/09 00:17:01;;;;;;;;;;;;;;;18.38;70.42;100392.83;2342805;75;51251;-73
2022/11/09 00:20:03;;;;;;;;;;;;;;;18.38;70.41;100384.27;2342829;75;50412;-74
2022/11/09 00:23:05;;;;;;;;;;;;;;;18.38;70.28;100384.27;2369389;75;51558;-74
2022/11/09 00:26:07;;;;;;;;;;;;;;;18.39;70.20;100381.91;2343033;74;51462;-73
2022/11/09 00:29:09;;;;;;;;;;;;;;;18.38;70.16;100384.27;2370394;74;50685;-72
2022/11/09 00:32:10;;;;;;;;;;;;;;;18.37;70.30;100379.95;2342977;74;51483;-73
2022/11/09 00:35:12;;;;;;;;;;;;;;;18.37;70.26;100377.27;2342993;74;50718;-74
2022/11/09 00:38:13;;;;;;;;;;;;;;;18.36;70.30;100374.25;2342817;75;53831;-73
2022/11/09 00:41:15;;;;;;;;;;;;;;;18.35;70.39;100377.96;2334608;74;52480;-73
2022/11/09 00:44:16;;;;;;;;;;;;;;;18.33;70.13;100382.67;2369811;74;50747;-73
2022/11/09 00:47:18;;;;;;;;;;;;;;;18.35;70.33;100379.30;2329084;75;50355;-73
2022/11/09 00:50:19;;;;;;;;;;;;;;;18.35;70.31;100383.32;2358530;75;50208;-73
2022/11/09 00:53:21;;;;;;;;;;;;;;;18.35;70.33;100379.81;2342631;75;50071;-73
2022/11/09 00:56:23;;;;;;;;;;;;;;;18.32;70.23;100378.86;2342711;74;49677;-75
2022/11/09 00:59:24;;;;;;;;;;;;;;;18.32;70.19;100378.34;2342700;75;51557;-73
2022/11/09 01:02:26;;;;;;;;;;;;;;;18.32;70.24;100370.83;2342910;75;50791;-74
2022/11/09 01:05:28;;;;;;;;;;;;;;;18.30;70.15;100369.66;2343092;74;50368;-73
2022/11/09 01:08:29;;;;;;;;;;;;;;;18.32;70.18;100370.83;2315301;75;50133;-73
2022/11/09 01:11:31;;;;;;;;;;;;;;;18.30;70.11;100370.17;2361478;73;50746;-73
2022/11/09 01:14:32;;;;;;;;;;;;;;;18.30;70.30;100366.16;2407288;73;51537;-73
2022/11/09 01:17:34;;;;;;;;;;;;;;;18.29;70.21;100368.02;2373047;73;50210;-73
2022/11/09 01:20:40;;;;;;;;;;;;;;;18.28;70.19;100356.95;2417217;73;50960;-72
2022/11/09 01:23:44;;;;;;;;;;;;;;;18.27;70.36;100366.84;2388670;73;51549;-73
2022/11/09 01:26:46;;;;;;;;;;;;;;;18.28;70.21;100364.99;2415175;73;50400;-73
2022/11/09 01:29:47;;;;;;;;;;;;;;;18.28;70.21;100360.98;2415010;73;50729;-74
2022/11/09 01:32:49;;;;;;;;;;;;;;;18.26;70.36;100354.48;2361790;73;52960;-73
2022/11/09 01:35:51;;;;;;;;;;;;;;;18.26;70.30;100346.94;2388906;73;51517;-73
2022/11/09 01:38:52;;;;;;;;;;;;;;;18.26;70.34;100352.30;2414717;73;50802;-78
2022/11/09 01:41:54;;;;;;;;;;;;;;;18.25;70.30;100347.97;2407070;73;50847;-73
2022/11/09 01:45:14;;;;;;;;;;;;;;;18.26;70.33;100342.44;2354572;74;52450;-73
2022/11/09 01:48:16;;;;;;;;;;;;;;;18.25;70.27;100349.30;2360690;74;50429;-73
2022/11/09 01:51:29;;;;;;;;;;;;;;;18.24;70.27;100342.30;2370447;74;51558;-73
2022/11/09 01:54:31;;;;;;;;;;;;;;;18.24;70.35;100338.28;2369960;74;50513;-73
2022/11/09 01:57:34;;;;;;;;;;;;;;;18.25;70.43;100346.63;2342478;75;51028;-73
2022/11/09 02:00:37;;;;;;;;;;;;;;;18.24;70.33;100347.66;2369930;74;50692;-75
2022/11/09 02:03:40;;;;;;;;;;;;;;;18.22;70.40;100341.66;2370534;75;22939;-74
2022/11/09 02:06:41;;;;;;;;;;;;;;;18.22;70.37;100333.62;2370602;75;50801;-73
2022/11/09 02:09:45;;;;;;;;;;;;;;;18.22;70.57;100332.28;2370295;74;51028;-74
2022/11/09 02:12:46;;;;;;;;;;;;;;;18.22;70.55;100324.25;2386702;73;51463;-74
2022/11/09 02:15:48;;;;;;;;;;;;;;;18.25;70.30;100313.97;2409936;73;50370;-73
2022/11/09 02:18:52;;;;;;;;;;;;;;;18.23;70.30;100316.52;2413465;73;51541;-74
2022/11/09 02:21:53;;;;;;;;;;;;;;;18.22;70.45;100308.18;2359310;74;51004;-75
2022/11/09 02:24:55;;;;;;;;;;;;;;;18.22;70.42;100309.52;2376343;73;53242;-74
2022/11/09 02:27:56;;;;;;;;;;;;;;;18.22;70.30;100306.84;2386830;73;51415;-74
2022/11/09 02:30:58;;;;;;;;;;;;;;;18.21;70.35;100307.36;2411762;73;51492;-74
2022/11/09 02:34:01;;;;;;;;;;;;;;;18.22;70.27;100316.22;2382818;73;49602;-74
2022/11/09 02:37:03;;;;;;;;;;;;;;;18.22;70.48;100318.89;2411366;74;50536;-73
2022/11/09 02:40:06;;;;;;;;;;;;;;;18.22;70.36;100312.20;2382383;74;50407;-73
2022/11/09 02:43:08;;;;;;;;;;;;;;;18.21;70.14;100313.20;2411416;73;50149;-73
2022/11/09 02:46:09;;;;;;;;;;;;;;;18.20;70.15;100311.55;2381665;74;49537;-72
2022/11/09 02:49:11;;;;;;;;;;;;;;;18.20;70.21;100312.89;2382524;74;50416;-74
2022/11/09 02:52:12;;;;;;;;;;;;;;;18.19;70.22;100304.03;2390561;73;50275;-72
2022/11/09 02:55:14;;;;;;;;;;;;;;;18.20;70.26;100296.81;2384471;73;50742;-73
2022/11/09 02:58:16;;;;;;;;;;;;;;;18.19;70.52;100314.74;2321743;74;51390;-73
2022/11/09 03:01:17;;;;;;;;;;;;;;;18.22;70.34;100310.86;2348571;74;50752;-72
2022/11/09 03:04:19;;;;;;;;;;;;;;;18.20;70.34;100304.85;2373562;74;50767;-73
2022/11/09 03:07:20;;;;;;;;;;;;;;;18.22;70.46;100317.55;2342689;75;50741;-73
2022/11/09 03:10:22;;;;;;;;;;;;;;;18.21;70.40;100319.89;2341684;75;52565;-72
2022/11/09 03:13:23;;;;;;;;;;;;;;;18.20;70.61;100316.39;2370577;75;51575;-73
2022/11/09 03:16:25;;;;;;;;;;;;;;;18.19;70.46;100305.88;2345211;74;53494;-75
2022/11/09 03:19:27;;;;;;;;;;;;;;;18.25;70.38;100308.62;2317161;75;50537;-73
2022/11/09 03:22:28;;;;;;;;;;;;;;;18.27;70.16;100301.75;2348160;73;52519;-73
2022/11/09 03:25:30;;;;;;;;;;;;;;;18.26;70.26;100294.71;2412632;73;50372;-72
2022/11/09 03:28:31;;;;;;;;;;;;;;;18.23;70.12;100283.87;2412930;74;50134;-72
2022/11/09 03:31:33;;;;;;;;;;;;;;;18.20;70.24;100287.45;2415063;74;50247;-74
2022/11/09 03:34:34;;;;;;;;;;;;;;;18.21;70.16;100291.77;2382535;74;51807;-73
2022/11/09 03:37:36;;;;;;;;;;;;;;;18.21;70.33;100295.79;2411706;74;51518;-73
2022/11/09 03:40:38;;;;;;;;;;;;;;;18.23;70.60;100304.47;2382732;74;51468;-74
2022/11/09 03:43:39;;;;;;;;;;;;;;;18.21;70.12;100306.50;2382429;74;51492;-73
2022/11/09 03:46:41;;;;;;;;;;;;;;;18.20;70.07;100307.53;2410669;74;50082;-73
2022/11/09 03:49:42;;;;;;;;;;;;;;;18.20;70.19;100303.52;2382675;74;50548;-74
2022/11/09 03:52:45;;;;;;;;;;;;;;;18.22;70.57;100305.50;2374069;73;50443;-73
2022/11/09 03:55:46;;;;;;;;;;;;;;;18.23;70.21;100301.80;2413228;73;51521;-73
2022/11/09 03:58:48;;;;;;;;;;;;;;;18.24;70.15;100309.65;2382426;73;52609;-73
2022/11/09 04:01:49;;;;;;;;;;;;;;;18.29;70.01;100311.77;2383236;73;52406;-73
2022/11/09 04:04:51;;;;;;;;;;;;;;;18.24;69.98;100326.23;2412461;73;51575;-73
2022/11/09 04:07:53;;;;;;;;;;;;;;;18.23;70.11;100321.87;2382549;73;50333;-73
2022/11/09 04:10:55;;;;;;;;;;;;;;;18.19;69.34;100327.31;2383380;73;51024;-73
2022/11/09 04:13:56;;;;;;;;;;;;;;;18.21;69.25;100334.62;2413545;73;52590;-72
2022/11/09 04:16:58;;;;;;;;;;;;;;;18.22;69.05;100333.10;2413644;73;50360;-72
2022/11/09 04:20:00;;;;;;;;;;;;;;;18.29;69.65;100331.86;2412131;73;50392;-73
2022/11/09 04:23:03;;;;;;;;;;;;;;;18.36;69.44;100323.88;2341822;74;52383;-72
2022/11/09 04:26:04;;;;;;;;;;;;;;;18.42;69.16;100315.06;2370108;75;50434;-72
2022/11/09 04:29:06;;;;;;;;;;;;;;;18.46;68.96;100325.22;2341903;74;51402;-74
2022/11/09 04:32:07;;;;;;;;;;;;;;;18.48;68.88;100317.83;2370292;75;50367;-72
2022/11/09 04:35:09;;;;;;;;;;;;;;;18.50;68.85;100321.16;2341842;74;51297;-72
2022/11/09 04:38:11;;;;;;;;;;;;;;;18.50;68.80;100314.97;2370399;75;50491;-73
2022/11/09 04:41:13;;;;;;;;;;;;;;;18.49;68.81;100308.76;2370452;75;50796;-72
2022/11/09 04:44:15;;;;;;;;;;;;;;;18.49;68.82;100314.12;2370299;75;52144;-72
2022/11/09 04:47:16;;;;;;;;;;;;;;;18.48;68.88;100311.13;2370394;75;51496;-73
2022/11/09 04:50:18;;;;;;;;;;;;;;;18.49;68.93;100322.16;2372734;73;50371;-73
2022/11/09 04:53:19;;;;;;;;;;;;;;;18.46;69.20;100321.20;2402823;73;51514;-74
2022/11/09 04:56:21;;;;;;;;;;;;;;;18.46;69.17;100317.18;2387813;73;51499;-73
2022/11/09 04:59:22;;;;;;;;;;;;;;;18.47;69.25;100317.52;2387662;73;50301;-73
2022/11/09 05:02:24;;;;;;;;;;;;;;;18.48;69.15;100329.06;2413614;73;50341;-75
2022/11/09 05:05:26;;;;;;;;;;;;;;;18.45;69.29;100322.23;2387473;73;49727;-73
2022/11/09 05:08:27;;;;;;;;;;;;;;;18.45;69.52;100327.59;2387382;73;50220;-73
2022/11/09 05:11:29;;;;;;;;;;;;;;;18.44;69.53;100327.25;2359696;73;52031;-74
2022/11/09 05:14:31;;;;;;;;;;;;;;;18.44;69.58;100333.95;2387262;73;51994;-73
2022/11/09 05:17:32;;;;;;;;;;;;;;;18.39;69.07;100327.51;2396829;72;50424;-72
2022/11/09 05:20:34;;;;;;;;;;;;;;;18.35;68.75;100338.30;2377846;72;50313;-73
2022/11/09 05:26:56;;;;;;;;;;;;;;;18.41;69.63;100337.53;2393351;73;22363;-74
2022/11/09 05:29:57;;;;;;;;;;;;;;;18.43;69.48;100334.16;2388906;73;50058;-73
2022/11/09 05:32:59;;;;;;;;;;;;;;;18.40;69.54;100328.67;2414440;73;50369;-74
2022/11/09 05:36:01;;;;;;;;;;;;;;;18.42;69.58;100336.02;2417002;73;49557;-76
2022/11/09 05:39:02;;;;;;;;;;;;;;;18.42;69.52;100336.02;2388838;73;50416;-74
2022/11/09 05:42:04;;;;;;;;;;;;;;;18.40;69.54;100338.05;2414906;73;50728;-74
2022/11/09 05:45:08;;;;;;;;;;;;;;;18.37;69.62;100333.08;2415048;73;50775;-74
2022/11/09 05:48:10;;;;;;;;;;;;;;;18.35;69.64;100342.31;2417121;73;50213;-74
2022/11/09 05:51:12;;;;;;;;;;;;;;;18.34;69.48;100338.81;2382915;73;51646;-74
2022/11/09 05:54:14;;;;;;;;;;;;;;;18.39;69.56;100333.69;2402180;73;50389;-75
2022/11/09 05:57:15;;;;;;;;;;;;;;;18.41;69.78;100341.55;2382973;74;50671;-73
2022/11/09 06:00:17;;;;;;;;;;;;;;;18.40;69.44;100334.03;2410814;74;50189;-74
2022/11/09 06:03:19;;;;;;;;;;;;;;;18.40;69.53;100344.74;2382274;74;50106;-74
2022/11/09 06:06:20;;;;;;;;;;;;;;;18.41;69.73;100338.87;2410971;74;50781;-73
2022/11/09 06:09:22;;;;;;;;;;;;;;;18.36;70.09;100336.75;2410951;74;50641;-75
2022/11/09 06:12:23;;;;;;;;;;;;;;;18.37;70.34;100341.11;2354993;74;50078;-74
2022/11/09 06:15:25;;;;;;;;;;;;;;;18.41;70.67;100342.37;2382065;74;50643;-78
2022/11/09 06:18:27;;;;;;;;;;;;;;;18.44;71.98;100358.06;2382396;73;50647;-74
2022/11/09 06:21:28;;;;;;;;;;;;;;;18.42;71.08;100357.45;2346233;73;50139;-75
2022/11/09 06:24:30;;;;;;;;;;;;;;;18.44;71.45;100359.40;2367625;74;50744;-75
2022/11/09 06:27:33;;;;;;;;;;;;;;;18.44;71.35;100359.40;2341005;74;50770;-74
2022/11/09 06:30:35;;;;;;;;;;;;;;;18.44;71.19;100360.73;2370098;75;50382;-74
2022/11/09 06:33:36;;;;;;;;;;;;;;;18.42;71.48;100365.48;2370206;74;50151;-73
2022/11/09 06:36:38;;;;;;;;;;;;;;;18.41;71.39;100367.82;2316361;75;49897;-73
2022/11/09 06:39:39;;;;;;;;;;;;;;;18.39;71.30;100367.17;2342349;75;50870;-73
2022/11/09 06:42:41;;;;;;;;;;;;;;;18.39;71.54;100365.83;2386903;73;51496;-73
2022/11/09 06:45:42;;;;;;;;;;;;;;;18.37;71.49;100371.91;2402760;73;51624;-73
2022/11/09 06:48:44;;;;;;;;;;;;;;;18.36;71.24;100370.75;2402844;73;51496;-74
2022/11/09 06:51:46;;;;;;;;;;;;;;;18.37;70.99;100381.29;2398545;73;50685;-73
2022/11/09 06:54:47;;;;;;;;;;;;;;;18.37;70.84;100381.29;2418074;71;50393;-74
2022/11/09 06:57:49;;;;;;;;;;;;;;;18.38;71.09;100386.95;2438170;72;50225;-74
2022/11/09 07:00:50;;;;;;;;;;;;;;;18.36;71.10;100384.97;2430968;72;50045;-75
2022/11/09 07:03:52;;;;;;;;;;;;;;;18.37;71.27;100387.98;2468296;72;51518;-73
2022/11/09 07:06:53;;;;;;;;;;;;;;;18.38;71.19;100401.69;2466251;72;51404;-73
2022/11/09 07:09:56;;;;;;;;;;;;;;;18.37;71.23;100390.66;2466777;72;51562;-74
2022/11/09 07:12:57;;;;;;;;;;;;;;;18.36;71.19;100396.20;2394729;73;50092;-74
2022/11/09 07:15:59;;;;;;;;;;;;;;;18.36;71.12;100393.00;2410931;73;51508;-73
2022/11/09 07:19:01;;;;;;;;;;;;;;;18.35;71.03;100392.69;2384689;73;50368;-74
2022/11/09 07:22:02;;;;;;;;;;;;;;;18.37;71.04;100382.63;2399059;73;50276;-74
2022/11/09 07:25:05;;;;;;;;;;;;;;;18.43;70.66;100373.83;2410013;73;50189;-74
2022/11/09 07:28:07;;;;;;;;;;;;;;;18.50;70.29;100353.30;2367414;74;50297;-74
2022/11/09 07:31:09;;;;;;;;;;;;;;;18.46;70.46;100358.70;2391093;74;51489;-73
2022/11/09 07:34:11;;;;;;;;;;;;;;;18.44;70.54;100372.80;2390749;74;50655;-74
2022/11/09 07:37:12;;;;;;;;;;;;;;;18.39;70.60;100359.66;2380614;73;50953;-74
2022/11/09 07:40:14;;;;;;;;;;;;;;;18.37;70.65;100358.52;2411563;72;50307;-74
2022/11/09 07:43:17;;;;;;;;;;;;;;;18.36;70.81;100352.00;2379389;73;50638;-74
2022/11/09 07:46:18;;;;;;;;;;;;;;;18.34;70.87;100339.30;2411261;73;51561;-74
2022/11/09 07:49:20;;;;;;;;;;;;;;;18.36;70.60;100342.11;2386335;73;51233;-74
2022/11/09 07:52:21;;;;;;;;;;;;;;;18.38;70.45;100358.00;2369672;74;50420;-74
2022/11/09 07:55:23;;;;;;;;;;;;;;;18.49;70.00;100387.80;2375117;73;50739;-74
2022/11/09 07:58:25;;;;;;;;;;;;;;;18.49;70.12;100405.21;2341715;75;50022;-74
2022/11/09 08:01:26;;;;;;;;;;;;;;;18.50;70.04;100398.03;2341629;75;50431;-74
2022/11/09 08:04:28;;;;;;;;;;;;;;;18.52;69.86;100408.53;2341485;74;50684;-74
2022/11/09 08:07:32;;;;;;;;;;;;;;;18.50;69.81;100414.92;2342337;74;51571;-74
2022/11/09 08:10:33;;;;;;;;;;;;;;;18.44;70.07;100409.48;2369300;75;21981;-74
2022/11/09 08:13:35;;;;;;;;;;;;;;;18.41;70.10;100418.72;2438951;72;50834;-73
2022/11/09 08:16:36;;;;;;;;;;;;;;;18.36;70.22;100418.45;2378285;73;51538;-74
2022/11/09 08:19:38;;;;;;;;;;;;;;;18.35;70.24;100399.39;2416382;72;50705;-75
2022/11/09 08:22:43;;;;;;;;;;;;;;;18.38;70.32;100400.34;2453335;72;50393;-74
2022/11/09 08:25:44;;;;;;;;;;;;;;;18.44;70.23;100415.66;2340794;75;51124;-74
2022/11/09 08:28:46;;;;;;;;;;;;;;;18.52;69.97;100413.89;2341126;75;50182;-74
2022/11/09 08:31:50;;;;;;;;;;;;;;;18.56;69.83;100408.50;2341040;74;50337;-73
2022/11/09 08:34:52;;;;;;;;;;;;;;;18.52;69.88;100391.12;2369194;75;51537;-73
2022/11/09 08:37:54;;;;;;;;;;;;;;;18.55;69.83;100389.40;2324138;74;52341;-73
2022/11/09 08:40:58;;;;;;;;;;;;;;;18.56;69.77;100388.40;2339292;75;51574;-73
2022/11/09 08:44:00;;;;;;;;;;;;;;;18.56;69.72;100391.08;2369095;75;51527;-73
2022/11/09 08:47:01;;;;;;;;;;;;;;;18.49;69.74;100399.85;2370498;73;51598;-74
2022/11/09 08:50:05;;;;;;;;;;;;;;;18.42;70.07;100404.81;2352323;74;50956;-73
2022/11/09 08:53:07;;;;;;;;;;;;;;;18.40;70.03;100414.39;2341634;75;51611;-73
2022/11/09 08:56:09;;;;;;;;;;;;;;;18.50;69.84;100416.78;2368412;74;52115;-73
2022/11/09 08:59:11;;;;;;;;;;;;;;;18.56;69.82;100413.85;2368446;75;50639;-73
2022/11/09 09:02:13;;;;;;;;;;;;;;;18.56;69.69;100415.19;2340974;75;49590;-73
2022/11/09 09:05:15;;;;;;;;;;;;;;;18.55;69.78;100416.19;2368288;75;51512;-73
2022/11/09 09:08:20;;;;;;;;;;;;;;;18.53;69.79;100415.58;2389918;72;50372;-73
2022/11/09 09:11:20;;;;;;;;;;;;;;;18.52;70.00;100415.23;2369589;74;22382;-73
2022/11/09 09:14:21;;;;;;;;;;;;;;;18.49;70.01;100424.48;2288073;76;50978;-74
2022/11/09 09:17:23;;;;;;;;;;;;;;;18.47;69.68;100431.38;2351829;74;51538;-73
2022/11/09 09:20:25;;;;;;;;;;;;;;;18.41;69.68;100424.08;2366699;74;51566;-76
2022/11/09 09:23:27;;;;;;;;;;;;;;;18.43;70.18;100436.78;2338786;74;50740;-75
2022/11/09 09:26:28;;;;;;;;;;;;;;;18.46;69.99;100432.38;2339304;74;53061;-75
2022/11/09 09:29:30;;;;;;;;;;;;;;;18.54;69.78;100420.73;2366656;75;51476;-75
2022/11/09 09:32:32;;;;;;;;;;;;;;;18.60;69.56;100425.35;2338859;75;51454;-75
2022/11/09 09:35:33;;;;;;;;;;;;;;;18.60;69.51;100427.17;2366506;75;50047;-75
2022/11/09 09:38:35;;;;;;;;;;;;;;;18.62;69.51;100431.84;2339044;75;49622;-75
2022/11/09 09:41:41;;;;;;;;;;;;;;;18.62;69.50;100438.03;2366634;75;49936;-75
2022/11/09 09:44:44;;;;;;;;;;;;;;;18.60;69.63;100440.58;2338757;75;50839;-75
2022/11/09 09:47:50;;;;;;;;;;;;;;;18.55;69.85;100452.37;2348468;74;51711;-75
2022/11/09 09:50:52;;;;;;;;;;;;;;;18.50;70.10;100460.47;2338294;74;52617;-75
2022/11/09 09:53:56;;;;;;;;;;;;;;;18.43;70.31;100454.71;2364062;75;50546;-75
2022/11/09 09:56:58;;;;;;;;;;;;;;;18.46;70.26;100455.67;2362838;75;50690;-75
2022/11/09 10:00:00;;;;;;;;;;;;;;;18.48;70.12;100461.68;2335343;75;49580;-76
2022/11/09 10:03:02;;;;;;;;;;;;;;;18.53;69.94;100475.86;2370516;75;50796;-76
2022/11/09 10:06:23;;;;;;;;;;;;;;;18.51;70.03;100476.03;2338811;75;51582;-74
2022/11/09 10:09:30;;;;;;;;;;;;;;;18.48;70.28;100471.88;2343214;75;51647;-76
2022/11/09 10:12:33;;;;;;;;;;;;;;;18.47;70.37;100471.58;2325514;76;50453;-75
2022/11/09 10:15:42;;;;;;;;;;;;;;;18.43;70.47;100466.25;2306226;75;49614;-75
2022/11/09 10:18:55;;;;;;;;;;;;;;;18.41;70.13;100469.62;2327834;74;51451;-75
2022/11/09 10:22:07;;;;;;;;;;;;;;;18.39;70.00;100464.95;2331733;76;50439;-74
2022/11/09 10:25:10;;;;;;;;;;;;;;;18.39;70.46;100467.63;2356793;73;50540;-75
2022/11/09 10:28:13;;;;;;;;;;;;;;;18.47;70.16;100472.91;2332601;74;51888;-74
2022/11/09 10:31:17;;;;;;;;;;;;;;;18.61;69.60;100458.33;2335066;74;50171;-74
2022/11/09 10:34:35;;;;;;;;;;;;;;;18.63;69.48;100457.64;2364362;75;51579;-75
2022/11/09 10:37:40;;;;;;;;;;;;;;;18.68;69.31;100458.73;2366869;73;51533;-75
2022/11/09 10:40:44;;;;;;;;;;;;;;;18.66;69.36;100454.58;2319551;75;50832;-75
2022/11/09 10:43:45;;;;;;;;;;;;;;;18.66;69.41;100442.52;2331719;75;50683;-75
2022/11/09 10:47:03;;;;;;;;;;;;;;;18.66;69.40;100435.82;2342739;74;51418;-75
2022/11/09 10:50:06;;;;;;;;;;;;;;;18.65;69.46;100428.30;2339562;74;51565;-76
2022/11/09 10:53:09;;;;;;;;;;;;;;;18.64;69.54;100439.19;2340204;75;51047;-76
2022/11/09 10:56:13;;;;;;;;;;;;;;;18.56;69.97;100428.59;2342927;75;51585;-76
2022/11/09 10:59:28;;;;;;;;;;;;;;;18.60;69.81;100428.52;2367545;75;50432;-76
2022/11/09 11:02:31;;;;;;;;;;;;;;;18.59;69.79;100420.17;2379381;74;51082;-76
2022/11/09 11:05:33;;;;;;;;;;;;;;;18.61;69.66;100418.14;2380814;73;52487;-75
2022/11/09 11:08:36;;;;;;;;;;;;;;;18.63;69.66;100410.75;2413809;73;51427;-75
2022/11/09 11:11:38;;;;;;;;;;;;;;;18.62;69.61;100410.41;2413683;73;50513;-76
2022/11/09 11:14:43;;;;;;;;;;;;;;;18.57;69.82;100410.14;2375580;73;51555;-76
2022/11/09 11:17:44;;;;;;;;;;;;;;;18.55;70.02;100402.31;2328116;74;49612;-76
2022/11/09 11:20:46;;;;;;;;;;;;;;;18.50;70.27;100407.41;2403602;73;50395;-76
2022/11/09 11:24:05;;;;;;;;;;;;;;;18.47;70.52;100411.29;2370631;73;50391;-75
2022/11/09 11:27:08;;;;;;;;;;;;;;;18.47;70.39;100416.65;2399935;73;50870;-76
2022/11/09 11:30:10;;;;;;;;;;;;;;;18.52;69.99;100414.72;2325987;75;52245;-75
2022/11/09 11:33:16;;;;;;;;;;;;;;;18.58;69.83;100410.48;2354311;74;51584;-76
2022/11/09 11:36:25;;;;;;;;;;;;;;;18.59;69.72;100410.27;2404054;73;50348;-76
2022/11/09 11:39:28;;;;;;;;;;;;;;;18.60;69.68;100407.94;2382234;73;50137;-75
2022/11/09 11:42:47;;;;;;;;;;;;;;;18.62;69.64;100410.41;2367030;75;50128;-75
2022/11/09 11:45:53;;;;;;;;;;;;;;;18.61;69.69;100404.73;2368340;74;52811;-75
2022/11/09 11:49:02;;;;;;;;;;;;;;;18.58;69.87;100400.59;2411791;73;51675;-75
2022/11/09 11:52:08;;;;;;;;;;;;;;;18.55;70.03;100401.45;2413127;73;51531;-75
2022/11/09 11:55:23;;;;;;;;;;;;;;;18.46;70.47;100394.88;2387358;73;49646;-76
2022/11/09 11:58:32;;;;;;;;;;;;;;;18.48;70.15;100380.78;2387155;73;49519;-76
2022/11/09 12:01:44;;;;;;;;;;;;;;;18.57;69.83;100380.15;2413200;73;50686;-76
2022/11/09 12:04:48;;;;;;;;;;;;;;;18.63;69.56;100385.29;2413253;73;51703;-76
2022/11/09 12:07:51;;;;;;;;;;;;;;;18.61;69.56;100375.27;2386635;73;50991;-76
2022/11/09 12:10:54;;;;;;;;;;;;;;;18.62;69.55;100380.93;2413645;73;50494;-76
2022/11/09 12:14:06;;;;;;;;;;;;;;;18.66;69.43;100382.22;2408973;73;50539;-76
2022/11/09 12:17:26;;;;;;;;;;;;;;;18.62;69.54;100382.27;2394265;73;51446;-76
2022/11/09 12:20:29;;;;;;;;;;;;;;;18.61;69.64;100388.14;2410170;73;52692;-76
2022/11/09 12:23:35;;;;;;;;;;;;;;;18.60;69.71;100381.62;2407709;73;50870;-76
2022/11/09 12:26:44;;;;;;;;;;;;;;;18.46;70.51;100386.84;2407203;74;51535;-76
2022/11/09 12:29:57;;;;;;;;;;;;;;;18.50;70.02;100373.40;2407804;73;52255;-76
2022/11/09 12:33:17;;;;;;;;;;;;;;;18.58;69.77;100376.47;2382007;73;51199;-76
2022/11/09 12:36:20;;;;;;;;;;;;;;;18.64;69.56;100385.08;2408110;74;50480;-75
2022/11/09 12:39:33;;;;;;;;;;;;;;;18.68;69.36;100374.83;2409642;73;51467;-76
2022/11/09 12:42:36;;;;;;;;;;;;;;;18.67;69.38;100383.36;2401990;74;50488;-76
2022/11/09 12:45:38;;;;;;;;;;;;;;;18.67;69.42;100383.88;2346774;73;52470;-76
2022/11/09 12:48:40;;;;;;;;;;;;;;;18.62;69.45;100392.47;2401293;73;50829;-77
2022/11/09 12:51:42;;;;;;;;;;;;;;;18.62;69.52;100398.34;2387750;73;51608;-76
2022/11/09 12:54:47;;;;;;;;;;;;;;;18.56;69.86;100397.78;2413684;73;50641;-77
2022/11/09 12:57:49;;;;;;;;;;;;;;;18.49;70.22;100392.33;2416011;73;50059;-76
2022/11/09 13:00:51;;;;;;;;;;;;;;;18.56;69.90;100395.92;2413856;73;50499;-76
2022/11/09 13:03:54;;;;;;;;;;;;;;;18.66;69.46;100387.58;2413692;73;50953;-76
2022/11/09 13:07:15;;;;;;;;;;;;;;;18.69;69.27;100378.64;2413941;73;50302;-77
2022/11/09 13:10:18;;;;;;;;;;;;;;;18.74;69.16;100383.44;2387918;73;50948;-76
2022/11/09 13:13:21;;;;;;;;;;;;;;;18.75;69.06;100379.75;2412531;73;51050;-76
2022/11/09 13:16:31;;;;;;;;;;;;;;;18.74;69.15;100379.94;2413300;73;50333;-76
2022/11/09 13:19:38;;;;;;;;;;;;;;;18.66;69.31;100382.22;2410908;73;50456;-77
2022/11/09 13:22:41;;;;;;;;;;;;;;;18.62;69.46;100381.75;2411281;73;50987;-77
2022/11/09 13:25:47;;;;;;;;;;;;;;;18.58;69.80;100384.52;2411603;73;51469;-77
2022/11/09 13:29:07;;;;;;;;;;;;;;;18.53;70.08;100375.38;2411962;73;25043;-77
2022/11/09 13:32:15;;;;;;;;;;;;;;;18.58;69.72;100378.33;2396203;73;50704;-77
2022/11/09 13:35:35;;;;;;;;;;;;;;;18.64;69.42;100379.72;2372147;73;51185;-76
2022/11/09 13:38:36;;;;;;;;;;;;;;;18.63;69.49;100382.61;2378849;73;50293;-77
2022/11/09 13:41:39;;;;;;;;;;;;;;;18.69;69.28;100391.22;2373134;73;50316;-76
2022/11/09 13:44:41;;;;;;;;;;;;;;;18.69;69.23;100392.04;2375260;73;49878;-77
2022/11/09 13:47:46;;;;;;;;;;;;;;;18.68;69.36;100398.95;2334421;74;50070;-80
2022/11/09 13:50:49;;;;;;;;;;;;;;;18.64;69.44;100390.95;2404668;72;22286;-77
2022/11/09 13:53:58;;;;;;;;;;;;;;;18.63;69.47;100387.97;2408257;73;51437;-77
2022/11/09 13:57:01;;;;;;;;;;;;;;;18.55;70.09;100393.42;2411705;73;50338;-77
2022/11/09 14:00:04;;;;;;;;;;;;;;;18.50;70.00;100395.34;2411643;73;51512;-76
2022/11/09 14:03:19;;;;;;;;;;;;;;;18.55;69.79;100383.55;2406533;73;52396;-77
2022/11/09 14:06:21;;;;;;;;;;;;;;;18.65;69.37;100388.58;2382770;73;51471;-77
2022/11/09 14:09:22;;;;;;;;;;;;;;;18.70;69.17;100391.52;2411469;73;51496;-77
2022/11/09 14:12:32;;;;;;;;;;;;;;;18.71;69.08;100398.56;2411629;73;51517;-79
2022/11/09 14:15:38;;;;;;;;;;;;;;;18.69;69.14;100395.23;2407138;73;51255;-77
2022/11/09 14:18:44;;;;;;;;;;;;;;;18.67;69.22;100399.95;2376828;73;50198;-76
2022/11/09 14:21:47;;;;;;;;;;;;;;;18.63;69.35;100399.52;2369011;74;51469;-76
2022/11/09 14:24:48;;;;;;;;;;;;;;;18.60;69.51;100410.61;2368489;75;50671;-76
2022/11/09 14:27:56;;;;;;;;;;;;;;;18.53;69.88;100415.58;2340973;75;52434;-77
2022/11/09 14:30:54;;;;;;;;;;;;;;;18.48;70.04;100408.92;2368559;74;22431;-77
2022/11/09 14:34:00;;;;;;;;;;;;;;;18.57;69.69;100402.93;2368367;75;51523;-77
2022/11/09 14:37:02;;;;;;;;;;;;;;;18.67;69.28;100414.69;2367733;75;50757;-77
2022/11/09 14:40:04;;;;;;;;;;;;;;;18.71;69.08;100418.15;2313841;74;51673;-76
2022/11/09 14:43:13;;;;;;;;;;;;;;;18.70;69.10;100415.16;2341442;75;49973;-77
2022/11/09 14:46:19;;;;;;;;;;;;;;;18.69;69.10;100414.00;2371313;74;50342;-77
2022/11/09 14:49:21;;;;;;;;;;;;;;;18.71;69.10;100422.69;2408665;73;50483;-76
2022/11/09 14:52:24;;;;;;;;;;;;;;;18.69;69.15;100418.02;2385622;73;51211;-76
2022/11/09 14:55:26;;;;;;;;;;;;;;;18.65;69.21;100414.05;2412742;73;50454;-76
2022/11/09 14:58:28;;;;;;;;;;;;;;;18.60;69.50;100410.61;2413832;73;50242;-76
2022/11/09 15:01:29;;;;;;;;;;;;;;;18.52;69.90;100408.53;2413883;73;50289;-77
2022/11/09 15:04:31;;;;;;;;;;;;;;;18.57;69.61;100408.80;2415684;73;50879;-76
2022/11/09 15:07:33;;;;;;;;;;;;;;;18.67;69.25;100418.71;2387765;73;50284;-76
2022/11/09 15:10:34;;;;;;;;;;;;;;;18.73;69.01;100417.97;2413456;73;51552;-76
2022/11/09 15:13:37;;;;;;;;;;;;;;;18.76;68.82;100418.95;2387333;73;51404;-76
2022/11/09 15:16:39;;;;;;;;;;;;;;;18.75;68.87;100425.80;2386468;73;51721;-76
2022/11/09 15:19:51;;;;;;;;;;;;;;;18.72;69.01;100428.36;2410552;73;50044;-76
2022/11/09 15:23:00;;;;;;;;;;;;;;;18.70;69.03;100419.18;2412087;73;50764;-77
2022/11/09 15:26:02;;;;;;;;;;;;;;;18.67;69.11;100420.05;2410270;73;51629;-76
2022/11/09 15:29:22;;;;;;;;;;;;;;;18.62;69.27;100413.09;2358645;73;52316;-76
2022/11/09 15:32:24;;;;;;;;;;;;;;;18.53;69.80;100415.06;2412080;73;51501;-76
2022/11/09 15:35:25;;;;;;;;;;;;;;;18.56;69.67;100413.85;2385813;73;50671;-75
2022/11/09 15:38:29;;;;;;;;;;;;;;;18.64;69.36;100409.72;2412141;73;50332;-77
2022/11/09 15:41:30;;;;;;;;;;;;;;;18.67;69.12;100414.69;2354736;73;51153;-77
2022/11/09 15:44:33;;;;;;;;;;;;;;;18.72;68.98;100414.44;2385994;73;50687;-77